sensor_id;sensor_type;location;lat;lon;timestamp;temperature;humidity
81307;DHT22;70775;50.846;3.224;2023-07-28T00:00:38;18.40;96.40
81307;DHT22;70775;50.846;3.224;2023-07-28T00:03:04;18.40;96.40
81307;DHT22;70775;50.846;3.224;2023-07-28T00:05:30;18.40;96.40
81307;DHT22;70775;50.846;3.224;2023-07-28T00:07:55;18.40;96.40
81307;DHT22;70775;50.846;3.224;2023-07-28T00:10:22;18.40;96.40
81307;DHT22;70775;50.846;3.224;2023-07-28T00:12:48;18.40;96.30
81307;DHT22;70775;50.846;3.224;2023-07-28T00:15:14;18.40;96.30
81307;DHT22;70775;50.846;3.224;2023-07-28T00:17:40;18.40;96.30
81307;DHT22;70775;50.846;3.224;2023-07-28T00:20:08;18.40;96.30
81307;DHT22;70775;50.846;3.224;2023-07-28T00:22:34;18.50;96.20
81307;DHT22;70775;50.846;3.224;2023-07-28T00:25:00;18.50;96.20
81307;DHT22;70775;50.846;3.224;2023-07-28T00:27:26;18.40;96.30
81307;DHT22;70775;50.846;3.224;2023-07-28T00:29:51;18.40;96.20
81307;DHT22;70775;50.846;3.224;2023-07-28T00:32:17;18.50;96.00
81307;DHT22;70775;50.846;3.224;2023-07-28T00:34:43;18.50;96.00
81307;DHT22;70775;50.846;3.224;2023-07-28T00:37:09;18.50;95.90
81307;DHT22;70775;50.846;3.224;2023-07-28T00:39:35;18.50;96.00
81307;DHT22;70775;50.846;3.224;2023-07-28T00:42:00;18.50;96.00
81307;DHT22;70775;50.846;3.224;2023-07-28T00:44:26;18.50;96.00
81307;DHT22;70775;50.846;3.224;2023-07-28T00:46:52;18.50;96.10
81307;DHT22;70775;50.846;3.224;2023-07-28T00:49:17;18.50;96.20
81307;DHT22;70775;50.846;3.224;2023-07-28T00:51:43;18.40;96.10
81307;DHT22;70775;50.846;3.224;2023-07-28T00:54:09;18.40;96.30
81307;DHT22;70775;50.846;3.224;2023-07-28T00:56:36;18.40;96.30
81307;DHT22;70775;50.846;3.224;2023-07-28T00:59:02;18.50;96.30
81307;DHT22;70775;50.846;3.224;2023-07-28T01:01:28;18.50;96.40
81307;DHT22;70775;50.846;3.224;2023-07-28T01:03:54;18.50;96.20
81307;DHT22;70775;50.846;3.224;2023-07-28T01:13:48;18.50;96.30
81307;DHT22;70775;50.846;3.224;2023-07-28T01:16:26;18.50;96.20
81307;DHT22;70775;50.846;3.224;2023-07-28T01:19:20;18.50;96.10
81307;DHT22;70775;50.846;3.224;2023-07-28T01:21:57;18.50;96.20
81307;DHT22;70775;50.846;3.224;2023-07-28T01:28:03;18.70;95.60
81307;DHT22;70775;50.846;3.224;2023-07-28T01:30:32;18.60;95.60
81307;DHT22;70775;50.846;3.224;2023-07-28T01:36:43;18.60;95.90
81307;DHT22;70775;50.846;3.224;2023-07-28T01:39:23;18.60;95.70
81307;DHT22;70775;50.846;3.224;2023-07-28T01:41:51;18.70;95.50
81307;DHT22;70775;50.846;3.224;2023-07-28T01:44:17;18.60;95.70
81307;DHT22;70775;50.846;3.224;2023-07-28T01:46:45;18.70;95.50
81307;DHT22;70775;50.846;3.224;2023-07-28T01:49:11;18.70;95.40
81307;DHT22;70775;50.846;3.224;2023-07-28T01:51:45;18.70;95.60
81307;DHT22;70775;50.846;3.224;2023-07-28T01:54:13;18.60;95.30
81307;DHT22;70775;50.846;3.224;2023-07-28T01:56:38;18.70;95.40
81307;DHT22;70775;50.846;3.224;2023-07-28T01:59:06;18.70;95.30
81307;DHT22;70775;50.846;3.224;2023-07-28T02:01:32;18.70;95.40
81307;DHT22;70775;50.846;3.224;2023-07-28T02:03:58;18.60;95.30
81307;DHT22;70775;50.846;3.224;2023-07-28T02:06:24;18.60;95.40
81307;DHT22;70775;50.846;3.224;2023-07-28T02:08:53;18.60;95.30
81307;DHT22;70775;50.846;3.224;2023-07-28T02:11:18;18.70;95.50
81307;DHT22;70775;50.846;3.224;2023-07-28T02:13:44;18.70;95.40
81307;DHT22;70775;50.846;3.224;2023-07-28T02:16:10;18.60;95.30
81307;DHT22;70775;50.846;3.224;2023-07-28T02:18:35;18.60;95.50
81307;DHT22;70775;50.846;3.224;2023-07-28T02:21:04;18.60;95.50
81307;DHT22;70775;50.846;3.224;2023-07-28T02:23:29;18.60;95.60
81307;DHT22;70775;50.846;3.224;2023-07-28T02:25:55;18.60;95.50
81307;DHT22;70775;50.846;3.224;2023-07-28T02:28:21;18.70;95.40
81307;DHT22;70775;50.846;3.224;2023-07-28T02:30:46;18.60;95.50
81307;DHT22;70775;50.846;3.224;2023-07-28T02:33:12;18.70;95.50
81307;DHT22;70775;50.846;3.224;2023-07-28T02:35:38;18.80;95.20
81307;DHT22;70775;50.846;3.224;2023-07-28T02:38:03;18.70;95.20
81307;DHT22;70775;50.846;3.224;2023-07-28T02:40:29;18.70;95.40
81307;DHT22;70775;50.846;3.224;2023-07-28T02:42:54;18.70;95.50
81307;DHT22;70775;50.846;3.224;2023-07-28T02:45:20;18.70;95.40
81307;DHT22;70775;50.846;3.224;2023-07-28T02:47:46;18.70;95.40
81307;DHT22;70775;50.846;3.224;2023-07-28T02:50:11;18.80;95.40
81307;DHT22;70775;50.846;3.224;2023-07-28T02:52:37;18.80;95.10
81307;DHT22;70775;50.846;3.224;2023-07-28T02:55:02;18.80;94.70
81307;DHT22;70775;50.846;3.224;2023-07-28T02:57:28;18.80;95.10
81307;DHT22;70775;50.846;3.224;2023-07-28T02:59:54;18.80;95.00
81307;DHT22;70775;50.846;3.224;2023-07-28T03:02:19;18.70;95.20
81307;DHT22;70775;50.846;3.224;2023-07-28T03:04:45;18.70;95.30
81307;DHT22;70775;50.846;3.224;2023-07-28T03:07:10;18.80;95.10
81307;DHT22;70775;50.846;3.224;2023-07-28T03:09:36;18.70;95.10
81307;DHT22;70775;50.846;3.224;2023-07-28T03:12:01;18.70;95.00
81307;DHT22;70775;50.846;3.224;2023-07-28T03:14:28;18.70;95.00
81307;DHT22;70775;50.846;3.224;2023-07-28T03:16:54;18.70;94.90
81307;DHT22;70775;50.846;3.224;2023-07-28T03:19:20;18.70;95.00
81307;DHT22;70775;50.846;3.224;2023-07-28T03:21:46;18.70;95.00
81307;DHT22;70775;50.846;3.224;2023-07-28T03:24:11;18.70;95.20
81307;DHT22;70775;50.846;3.224;2023-07-28T03:26:37;18.70;94.70
81307;DHT22;70775;50.846;3.224;2023-07-28T03:29:02;18.70;94.80
81307;DHT22;70775;50.846;3.224;2023-07-28T03:31:28;18.70;94.90
81307;DHT22;70775;50.846;3.224;2023-07-28T03:33:53;18.70;94.90
81307;DHT22;70775;50.846;3.224;2023-07-28T03:36:19;18.70;95.00
81307;DHT22;70775;50.846;3.224;2023-07-28T03:38:45;18.70;94.70
81307;DHT22;70775;50.846;3.224;2023-07-28T03:41:11;18.70;94.90
81307;DHT22;70775;50.846;3.224;2023-07-28T03:43:37;18.80;94.80
81307;DHT22;70775;50.846;3.224;2023-07-28T03:46:03;18.80;94.70
81307;DHT22;70775;50.846;3.224;2023-07-28T03:48:28;18.80;94.80
81307;DHT22;70775;50.846;3.224;2023-07-28T03:50:54;18.70;95.30
81307;DHT22;70775;50.846;3.224;2023-07-28T03:53:19;18.70;94.90
81307;DHT22;70775;50.846;3.224;2023-07-28T03:55:45;18.70;94.90
81307;DHT22;70775;50.846;3.224;2023-07-28T03:58:11;18.70;94.90
81307;DHT22;70775;50.846;3.224;2023-07-28T04:00:36;18.70;94.70
81307;DHT22;70775;50.846;3.224;2023-07-28T04:03:02;18.70;95.00
81307;DHT22;70775;50.846;3.224;2023-07-28T04:05:27;18.70;95.00
81307;DHT22;70775;50.846;3.224;2023-07-28T04:07:53;18.60;95.30
81307;DHT22;70775;50.846;3.224;2023-07-28T04:10:19;18.70;95.20
81307;DHT22;70775;50.846;3.224;2023-07-28T04:12:44;18.60;95.30
81307;DHT22;70775;50.846;3.224;2023-07-28T04:15:10;18.50;95.70
81307;DHT22;70775;50.846;3.224;2023-07-28T04:17:35;18.50;95.80
81307;DHT22;70775;50.846;3.224;2023-07-28T04:20:01;18.50;95.60
81307;DHT22;70775;50.846;3.224;2023-07-28T04:22:27;18.50;95.70
81307;DHT22;70775;50.846;3.224;2023-07-28T04:24:53;18.50;95.80
81307;DHT22;70775;50.846;3.224;2023-07-28T04:27:19;18.50;95.80
81307;DHT22;70775;50.846;3.224;2023-07-28T04:29:45;18.40;96.00
81307;DHT22;70775;50.846;3.224;2023-07-28T04:32:10;18.40;96.00
81307;DHT22;70775;50.846;3.224;2023-07-28T04:34:36;18.40;96.10
81307;DHT22;70775;50.846;3.224;2023-07-28T04:37:02;18.40;96.10
81307;DHT22;70775;50.846;3.224;2023-07-28T04:39:27;18.40;96.20
81307;DHT22;70775;50.846;3.224;2023-07-28T04:41:53;18.40;96.30
81307;DHT22;70775;50.846;3.224;2023-07-28T04:44:18;18.40;96.30
81307;DHT22;70775;50.846;3.224;2023-07-28T04:46:45;18.50;96.60
81307;DHT22;70775;50.846;3.224;2023-07-28T04:49:13;18.50;96.00
81307;DHT22;70775;50.846;3.224;2023-07-28T04:51:39;18.50;96.00
81307;DHT22;70775;50.846;3.224;2023-07-28T04:54:04;18.50;96.00
81307;DHT22;70775;50.846;3.224;2023-07-28T04:56:30;18.50;95.90
81307;DHT22;70775;50.846;3.224;2023-07-28T04:58:55;18.50;95.70
81307;DHT22;70775;50.846;3.224;2023-07-28T05:01:21;18.40;95.80
81307;DHT22;70775;50.846;3.224;2023-07-28T05:03:47;18.50;96.00
81307;DHT22;70775;50.846;3.224;2023-07-28T05:06:13;18.50;96.10
81307;DHT22;70775;50.846;3.224;2023-07-28T05:08:38;18.60;95.80
81307;DHT22;70775;50.846;3.224;2023-07-28T05:11:04;18.70;95.30
81307;DHT22;70775;50.846;3.224;2023-07-28T05:13:29;18.70;95.80
81307;DHT22;70775;50.846;3.224;2023-07-28T05:15:55;18.70;95.20
81307;DHT22;70775;50.846;3.224;2023-07-28T05:18:21;18.60;95.30
81307;DHT22;70775;50.846;3.224;2023-07-28T05:20:46;18.60;95.50
81307;DHT22;70775;50.846;3.224;2023-07-28T05:23:12;18.60;95.20
81307;DHT22;70775;50.846;3.224;2023-07-28T05:25:37;18.60;95.00
81307;DHT22;70775;50.846;3.224;2023-07-28T05:28:03;18.60;95.20
81307;DHT22;70775;50.846;3.224;2023-07-28T05:30:29;18.50;94.90
81307;DHT22;70775;50.846;3.224;2023-07-28T05:32:54;18.50;95.30
81307;DHT22;70775;50.846;3.224;2023-07-28T05:35:20;18.50;95.30
81307;DHT22;70775;50.846;3.224;2023-07-28T05:37:46;18.50;95.20
81307;DHT22;70775;50.846;3.224;2023-07-28T05:40:12;18.50;94.80
81307;DHT22;70775;50.846;3.224;2023-07-28T05:42:38;18.50;95.10
81307;DHT22;70775;50.846;3.224;2023-07-28T05:45:04;18.60;94.90
81307;DHT22;70775;50.846;3.224;2023-07-28T05:47:30;18.50;95.00
81307;DHT22;70775;50.846;3.224;2023-07-28T05:49:56;18.50;95.10
81307;DHT22;70775;50.846;3.224;2023-07-28T05:52:22;18.40;95.10
81307;DHT22;70775;50.846;3.224;2023-07-28T05:54:48;18.50;95.30
81307;DHT22;70775;50.846;3.224;2023-07-28T05:57:14;18.40;95.60
81307;DHT22;70775;50.846;3.224;2023-07-28T05:59:39;18.40;95.30
81307;DHT22;70775;50.846;3.224;2023-07-28T06:02:05;18.50;94.50
81307;DHT22;70775;50.846;3.224;2023-07-28T06:04:31;18.50;94.60
81307;DHT22;70775;50.846;3.224;2023-07-28T06:06:56;18.40;94.60
81307;DHT22;70775;50.846;3.224;2023-07-28T06:09:22;18.40;94.70
81307;DHT22;70775;50.846;3.224;2023-07-28T06:11:48;18.50;94.40
81307;DHT22;70775;50.846;3.224;2023-07-28T06:14:13;18.40;94.80
81307;DHT22;70775;50.846;3.224;2023-07-28T06:16:39;18.50;94.30
81307;DHT22;70775;50.846;3.224;2023-07-28T06:19:05;18.40;94.40
81307;DHT22;70775;50.846;3.224;2023-07-28T06:21:30;18.40;94.50
81307;DHT22;70775;50.846;3.224;2023-07-28T06:23:56;18.50;94.40
81307;DHT22;70775;50.846;3.224;2023-07-28T06:26:22;18.40;94.30
81307;DHT22;70775;50.846;3.224;2023-07-28T06:28:47;18.40;94.60
81307;DHT22;70775;50.846;3.224;2023-07-28T06:31:13;18.50;94.70
81307;DHT22;70775;50.846;3.224;2023-07-28T06:33:39;18.60;94.50
81307;DHT22;70775;50.846;3.224;2023-07-28T06:36:05;18.70;94.10
81307;DHT22;70775;50.846;3.224;2023-07-28T06:38:30;18.70;94.20
81307;DHT22;70775;50.846;3.224;2023-07-28T06:40:56;18.80;94.40
81307;DHT22;70775;50.846;3.224;2023-07-28T06:43:21;18.90;93.80
81307;DHT22;70775;50.846;3.224;2023-07-28T06:45:50;18.90;93.30
81307;DHT22;70775;50.846;3.224;2023-07-28T06:48:16;19.00;93.30
81307;DHT22;70775;50.846;3.224;2023-07-28T06:50:41;19.10;93.00
81307;DHT22;70775;50.846;3.224;2023-07-28T06:53:08;19.10;92.60
81307;DHT22;70775;50.846;3.224;2023-07-28T06:55:33;19.10;92.70
81307;DHT22;70775;50.846;3.224;2023-07-28T06:57:59;19.10;92.60
81307;DHT22;70775;50.846;3.224;2023-07-28T07:00:24;19.00;92.40
81307;DHT22;70775;50.846;3.224;2023-07-28T07:02:50;19.00;92.90
81307;DHT22;70775;50.846;3.224;2023-07-28T07:05:16;19.00;92.50
81307;DHT22;70775;50.846;3.224;2023-07-28T07:07:42;19.00;92.50
81307;DHT22;70775;50.846;3.224;2023-07-28T07:10:08;19.10;92.10
81307;DHT22;70775;50.846;3.224;2023-07-28T07:12:33;19.00;92.70
81307;DHT22;70775;50.846;3.224;2023-07-28T07:14:59;19.10;92.40
81307;DHT22;70775;50.846;3.224;2023-07-28T07:17:25;19.10;92.70
81307;DHT22;70775;50.846;3.224;2023-07-28T07:19:50;19.20;92.00
81307;DHT22;70775;50.846;3.224;2023-07-28T07:22:16;19.30;91.70
81307;DHT22;70775;50.846;3.224;2023-07-28T07:24:43;19.40;92.00
81307;DHT22;70775;50.846;3.224;2023-07-28T07:27:08;19.30;91.90
81307;DHT22;70775;50.846;3.224;2023-07-28T07:29:39;19.40;91.50
81307;DHT22;70775;50.846;3.224;2023-07-28T07:32:07;19.40;91.70
81307;DHT22;70775;50.846;3.224;2023-07-28T07:34:34;19.40;91.90
81307;DHT22;70775;50.846;3.224;2023-07-28T07:37:02;19.40;91.60
81307;DHT22;70775;50.846;3.224;2023-07-28T07:39:28;19.40;91.80
81307;DHT22;70775;50.846;3.224;2023-07-28T07:41:54;19.40;91.90
81307;DHT22;70775;50.846;3.224;2023-07-28T07:44:20;19.40;91.10
81307;DHT22;70775;50.846;3.224;2023-07-28T07:46:45;19.30;91.60
81307;DHT22;70775;50.846;3.224;2023-07-28T07:49:11;19.30;91.80
81307;DHT22;70775;50.846;3.224;2023-07-28T07:51:37;19.40;91.40
81307;DHT22;70775;50.846;3.224;2023-07-28T07:54:02;19.40;91.60
81307;DHT22;70775;50.846;3.224;2023-07-28T07:56:28;19.40;91.20
81307;DHT22;70775;50.846;3.224;2023-07-28T07:58:53;19.50;91.40
81307;DHT22;70775;50.846;3.224;2023-07-28T08:01:19;19.50;91.40
81307;DHT22;70775;50.846;3.224;2023-07-28T08:03:45;19.50;90.80
81307;DHT22;70775;50.846;3.224;2023-07-28T08:06:10;19.40;91.30
81307;DHT22;70775;50.846;3.224;2023-07-28T08:08:37;19.40;91.10
81307;DHT22;70775;50.846;3.224;2023-07-28T08:11:03;19.40;91.10
81307;DHT22;70775;50.846;3.224;2023-07-28T08:13:28;19.30;91.40
81307;DHT22;70775;50.846;3.224;2023-07-28T08:15:54;19.30;91.10
81307;DHT22;70775;50.846;3.224;2023-07-28T08:18:20;19.30;91.20
81307;DHT22;70775;50.846;3.224;2023-07-28T08:20:45;19.40;91.50
81307;DHT22;70775;50.846;3.224;2023-07-28T08:23:11;19.50;91.50
81307;DHT22;70775;50.846;3.224;2023-07-28T08:25:37;19.60;90.40
81307;DHT22;70775;50.846;3.224;2023-07-28T08:28:03;19.50;90.50
81307;DHT22;70775;50.846;3.224;2023-07-28T08:30:28;19.60;90.80
81307;DHT22;70775;50.846;3.224;2023-07-28T08:32:54;19.60;91.00
81307;DHT22;70775;50.846;3.224;2023-07-28T08:35:21;19.70;91.60
81307;DHT22;70775;50.846;3.224;2023-07-28T08:37:48;19.80;90.50
81307;DHT22;70775;50.846;3.224;2023-07-28T08:40:13;19.80;89.10
81307;DHT22;70775;50.846;3.224;2023-07-28T08:42:40;19.70;89.90
81307;DHT22;70775;50.846;3.224;2023-07-28T08:45:07;19.80;90.00
81307;DHT22;70775;50.846;3.224;2023-07-28T08:47:34;19.90;90.10
81307;DHT22;70775;50.846;3.224;2023-07-28T08:50:00;20.00;88.20
81307;DHT22;70775;50.846;3.224;2023-07-28T08:52:26;19.90;89.30
81307;DHT22;70775;50.846;3.224;2023-07-28T08:54:51;19.90;89.90
81307;DHT22;70775;50.846;3.224;2023-07-28T08:57:17;19.90;89.00
81307;DHT22;70775;50.846;3.224;2023-07-28T08:59:45;20.00;89.40
81307;DHT22;70775;50.846;3.224;2023-07-28T09:02:15;20.00;88.20
81307;DHT22;70775;50.846;3.224;2023-07-28T09:04:42;20.10;89.10
81307;DHT22;70775;50.846;3.224;2023-07-28T09:07:08;20.20;87.40
81307;DHT22;70775;50.846;3.224;2023-07-28T09:09:34;20.20;87.60
81307;DHT22;70775;50.846;3.224;2023-07-28T09:12:01;20.30;87.00
81307;DHT22;70775;50.846;3.224;2023-07-28T09:14:27;20.30;86.90
81307;DHT22;70775;50.846;3.224;2023-07-28T09:16:53;20.30;86.90
81307;DHT22;70775;50.846;3.224;2023-07-28T09:19:20;20.10;87.50
81307;DHT22;70775;50.846;3.224;2023-07-28T09:22:00;20.00;87.40
81307;DHT22;70775;50.846;3.224;2023-07-28T09:24:33;20.10;88.10
81307;DHT22;70775;50.846;3.224;2023-07-28T09:26:59;20.10;87.00
81307;DHT22;70775;50.846;3.224;2023-07-28T09:29:25;20.10;88.10
81307;DHT22;70775;50.846;3.224;2023-07-28T09:31:54;20.20;87.10
81307;DHT22;70775;50.846;3.224;2023-07-28T09:34:28;20.20;87.60
81307;DHT22;70775;50.846;3.224;2023-07-28T09:36:55;20.20;86.90
81307;DHT22;70775;50.846;3.224;2023-07-28T09:39:21;20.20;86.40
81307;DHT22;70775;50.846;3.224;2023-07-28T09:41:47;20.20;87.40
81307;DHT22;70775;50.846;3.224;2023-07-28T09:44:13;20.30;86.80
81307;DHT22;70775;50.846;3.224;2023-07-28T09:46:57;20.50;85.90
81307;DHT22;70775;50.846;3.224;2023-07-28T09:49:35;20.60;85.60
81307;DHT22;70775;50.846;3.224;2023-07-28T09:52:08;20.50;85.90
81307;DHT22;70775;50.846;3.224;2023-07-28T09:54:39;20.50;86.60
81307;DHT22;70775;50.846;3.224;2023-07-28T09:57:13;20.50;86.80
81307;DHT22;70775;50.846;3.224;2023-07-28T09:59:40;20.50;86.70
81307;DHT22;70775;50.846;3.224;2023-07-28T10:02:07;20.40;86.70
81307;DHT22;70775;50.846;3.224;2023-07-28T10:04:33;20.40;88.30
81307;DHT22;70775;50.846;3.224;2023-07-28T10:07:00;20.30;87.30
81307;DHT22;70775;50.846;3.224;2023-07-28T10:09:28;20.30;88.00
81307;DHT22;70775;50.846;3.224;2023-07-28T10:11:54;20.20;87.50
81307;DHT22;70775;50.846;3.224;2023-07-28T10:14:33;20.20;87.70
81307;DHT22;70775;50.846;3.224;2023-07-28T10:17:00;20.10;88.30
81307;DHT22;70775;50.846;3.224;2023-07-28T10:19:31;20.10;87.90
81307;DHT22;70775;50.846;3.224;2023-07-28T10:22:00;20.10;87.20
81307;DHT22;70775;50.846;3.224;2023-07-28T10:24:49;20.20;87.50
81307;DHT22;70775;50.846;3.224;2023-07-28T10:29:58;20.60;85.40
81307;DHT22;70775;50.846;3.224;2023-07-28T10:32:28;20.60;85.00
81307;DHT22;70775;50.846;3.224;2023-07-28T10:35:03;20.80;85.40
81307;DHT22;70775;50.846;3.224;2023-07-28T10:37:31;20.90;83.80
81307;DHT22;70775;50.846;3.224;2023-07-28T10:40:32;20.80;84.60
81307;DHT22;70775;50.846;3.224;2023-07-28T10:43:02;20.80;84.20
81307;DHT22;70775;50.846;3.224;2023-07-28T10:45:30;20.60;84.60
81307;DHT22;70775;50.846;3.224;2023-07-28T10:47:57;20.50;85.50
81307;DHT22;70775;50.846;3.224;2023-07-28T10:50:27;20.40;86.00
81307;DHT22;70775;50.846;3.224;2023-07-28T10:52:55;20.40;87.00
81307;DHT22;70775;50.846;3.224;2023-07-28T10:55:24;20.50;86.10
81307;DHT22;70775;50.846;3.224;2023-07-28T10:57:51;20.40;85.80
81307;DHT22;70775;50.846;3.224;2023-07-28T11:00:22;20.40;86.70
81307;DHT22;70775;50.846;3.224;2023-07-28T11:02:50;20.50;86.30
81307;DHT22;70775;50.846;3.224;2023-07-28T11:05:29;20.50;86.20
81307;DHT22;70775;50.846;3.224;2023-07-28T11:08:00;20.60;86.20
81307;DHT22;70775;50.846;3.224;2023-07-28T11:10:31;20.70;85.30
81307;DHT22;70775;50.846;3.224;2023-07-28T11:13:01;20.70;85.70
81307;DHT22;70775;50.846;3.224;2023-07-28T11:15:27;20.90;85.40
81307;DHT22;70775;50.846;3.224;2023-07-28T11:17:53;20.90;84.20
81307;DHT22;70775;50.846;3.224;2023-07-28T11:20:24;21.00;84.60
81307;DHT22;70775;50.846;3.224;2023-07-28T11:23:01;21.20;86.20
81307;DHT22;70775;50.846;3.224;2023-07-28T11:25:30;21.50;84.00
81307;DHT22;70775;50.846;3.224;2023-07-28T11:27:56;21.90;84.40
81307;DHT22;70775;50.846;3.224;2023-07-28T11:30:23;22.10;81.60
81307;DHT22;70775;50.846;3.224;2023-07-28T11:32:50;22.50;82.30
81307;DHT22;70775;50.846;3.224;2023-07-28T11:35:20;22.40;78.60
81307;DHT22;70775;50.846;3.224;2023-07-28T11:37:47;22.30;79.90
81307;DHT22;70775;50.846;3.224;2023-07-28T11:40:15;22.40;79.60
81307;DHT22;70775;50.846;3.224;2023-07-28T11:42:55;22.20;79.40
81307;DHT22;70775;50.846;3.224;2023-07-28T11:45:22;22.20;79.90
81307;DHT22;70775;50.846;3.224;2023-07-28T11:48:04;22.00;81.00
81307;DHT22;70775;50.846;3.224;2023-07-28T11:50:39;22.20;80.30
81307;DHT22;70775;50.846;3.224;2023-07-28T11:53:05;22.50;81.40
81307;DHT22;70775;50.846;3.224;2023-07-28T11:55:38;22.70;79.90
81307;DHT22;70775;50.846;3.224;2023-07-28T11:58:07;22.60;78.10
81307;DHT22;70775;50.846;3.224;2023-07-28T12:00:37;22.60;78.90
81307;DHT22;70775;50.846;3.224;2023-07-28T12:03:08;22.50;77.80
81307;DHT22;70775;50.846;3.224;2023-07-28T12:06:04;22.40;78.60
81307;DHT22;70775;50.846;3.224;2023-07-28T12:08:35;22.20;78.10
81307;DHT22;70775;50.846;3.224;2023-07-28T12:11:01;22.00;78.70
81307;DHT22;70775;50.846;3.224;2023-07-28T12:13:27;21.80;79.70
81307;DHT22;70775;50.846;3.224;2023-07-28T12:15:53;21.80;80.80
81307;DHT22;70775;50.846;3.224;2023-07-28T12:18:18;22.10;81.00
81307;DHT22;70775;50.846;3.224;2023-07-28T12:20:49;22.40;80.10
81307;DHT22;70775;50.846;3.224;2023-07-28T12:23:20;22.60;78.90
81307;DHT22;70775;50.846;3.224;2023-07-28T12:25:47;22.80;79.10
81307;DHT22;70775;50.846;3.224;2023-07-28T12:28:13;22.80;78.20
81307;DHT22;70775;50.846;3.224;2023-07-28T12:30:39;22.90;77.60
81307;DHT22;70775;50.846;3.224;2023-07-28T12:33:05;23.00;77.10
81307;DHT22;70775;50.846;3.224;2023-07-28T12:35:32;22.90;74.40
81307;DHT22;70775;50.846;3.224;2023-07-28T12:38:03;22.80;72.90
81307;DHT22;70775;50.846;3.224;2023-07-28T12:40:31;22.90;74.70
81307;DHT22;70775;50.846;3.224;2023-07-28T12:42:57;22.80;73.20
81307;DHT22;70775;50.846;3.224;2023-07-28T12:45:23;22.80;73.70
81307;DHT22;70775;50.846;3.224;2023-07-28T12:47:55;23.00;75.60
81307;DHT22;70775;50.846;3.224;2023-07-28T12:50:21;23.40;74.40
81307;DHT22;70775;50.846;3.224;2023-07-28T12:52:48;23.60;73.40
81307;DHT22;70775;50.846;3.224;2023-07-28T12:55:14;23.60;72.00
81307;DHT22;70775;50.846;3.224;2023-07-28T12:57:40;23.50;71.60
81307;DHT22;70775;50.846;3.224;2023-07-28T13:00:07;23.20;72.30
81307;DHT22;70775;50.846;3.224;2023-07-28T13:02:39;23.30;73.10
81307;DHT22;70775;50.846;3.224;2023-07-28T13:05:05;23.10;73.20
81307;DHT22;70775;50.846;3.224;2023-07-28T13:07:32;23.10;73.60
81307;DHT22;70775;50.846;3.224;2023-07-28T13:09:58;23.20;73.80
81307;DHT22;70775;50.846;3.224;2023-07-28T13:12:23;23.20;73.90
81307;DHT22;70775;50.846;3.224;2023-07-28T13:14:49;23.30;72.70
81307;DHT22;70775;50.846;3.224;2023-07-28T13:17:15;23.50;72.60
81307;DHT22;70775;50.846;3.224;2023-07-28T13:19:42;23.60;72.10
81307;DHT22;70775;50.846;3.224;2023-07-28T13:22:07;23.60;73.20
81307;DHT22;70775;50.846;3.224;2023-07-28T13:24:33;23.80;71.40
81307;DHT22;70775;50.846;3.224;2023-07-28T13:26:58;24.10;71.40
81307;DHT22;70775;50.846;3.224;2023-07-28T13:29:24;24.00;70.90
81307;DHT22;70775;50.846;3.224;2023-07-28T13:31:49;24.20;71.50
81307;DHT22;70775;50.846;3.224;2023-07-28T13:34:15;24.30;72.10
81307;DHT22;70775;50.846;3.224;2023-07-28T13:36:41;24.50;69.30
81307;DHT22;70775;50.846;3.224;2023-07-28T13:39:09;24.50;69.80
81307;DHT22;70775;50.846;3.224;2023-07-28T13:41:36;24.20;70.30
81307;DHT22;70775;50.846;3.224;2023-07-28T13:44:02;24.30;69.70
81307;DHT22;70775;50.846;3.224;2023-07-28T13:46:28;24.30;70.20
81307;DHT22;70775;50.846;3.224;2023-07-28T13:48:53;24.80;71.30
81307;DHT22;70775;50.846;3.224;2023-07-28T13:51:20;25.30;68.50
81307;DHT22;70775;50.846;3.224;2023-07-28T13:53:46;25.20;68.20
81307;DHT22;70775;50.846;3.224;2023-07-28T13:56:12;25.00;68.00
81307;DHT22;70775;50.846;3.224;2023-07-28T13:58:40;25.00;68.70
81307;DHT22;70775;50.846;3.224;2023-07-28T14:01:05;24.80;67.10
81307;DHT22;70775;50.846;3.224;2023-07-28T14:03:31;24.60;68.20
81307;DHT22;70775;50.846;3.224;2023-07-28T14:05:56;24.70;68.90
81307;DHT22;70775;50.846;3.224;2023-07-28T14:08:23;24.70;70.80
81307;DHT22;70775;50.846;3.224;2023-07-28T14:10:49;24.90;70.80
81307;DHT22;70775;50.846;3.224;2023-07-28T14:13:14;25.40;68.60
81307;DHT22;70775;50.846;3.224;2023-07-28T14:15:40;25.90;70.00
81307;DHT22;70775;50.846;3.224;2023-07-28T14:18:06;26.40;66.30
81307;DHT22;70775;50.846;3.224;2023-07-28T14:20:31;26.20;64.80
81307;DHT22;70775;50.846;3.224;2023-07-28T14:22:59;25.70;66.30
81307;DHT22;70775;50.846;3.224;2023-07-28T14:25:26;25.40;65.90
81307;DHT22;70775;50.846;3.224;2023-07-28T14:27:51;25.40;67.30
81307;DHT22;70775;50.846;3.224;2023-07-28T14:30:17;25.20;67.50
81307;DHT22;70775;50.846;3.224;2023-07-28T14:32:43;25.40;68.50
81307;DHT22;70775;50.846;3.224;2023-07-28T14:35:08;25.50;68.30
81307;DHT22;70775;50.846;3.224;2023-07-28T14:37:34;25.30;67.10
81307;DHT22;70775;50.846;3.224;2023-07-28T14:39:59;25.30;68.00
81307;DHT22;70775;50.846;3.224;2023-07-28T14:42:25;25.20;66.90
81307;DHT22;70775;50.846;3.224;2023-07-28T14:44:51;25.30;67.40
81307;DHT22;70775;50.846;3.224;2023-07-28T14:47:16;25.30;66.50
81307;DHT22;70775;50.846;3.224;2023-07-28T14:49:42;25.60;66.60
81307;DHT22;70775;50.846;3.224;2023-07-28T14:52:07;25.80;65.70
81307;DHT22;70775;50.846;3.224;2023-07-28T14:54:33;25.80;64.60
81307;DHT22;70775;50.846;3.224;2023-07-28T14:56:59;25.80;64.70
81307;DHT22;70775;50.846;3.224;2023-07-28T14:59:24;25.80;65.20
81307;DHT22;70775;50.846;3.224;2023-07-28T15:01:50;25.80;64.50
81307;DHT22;70775;50.846;3.224;2023-07-28T15:04:15;25.80;64.10
81307;DHT22;70775;50.846;3.224;2023-07-28T15:06:41;25.80;65.00
81307;DHT22;70775;50.846;3.224;2023-07-28T15:09:07;26.00;63.40
81307;DHT22;70775;50.846;3.224;2023-07-28T15:11:34;26.00;63.70
81307;DHT22;70775;50.846;3.224;2023-07-28T15:14:00;25.90;63.20
81307;DHT22;70775;50.846;3.224;2023-07-28T15:16:26;26.00;63.70
81307;DHT22;70775;50.846;3.224;2023-07-28T15:18:52;25.80;63.90
81307;DHT22;70775;50.846;3.224;2023-07-28T15:21:17;25.90;63.50
81307;DHT22;70775;50.846;3.224;2023-07-28T15:23:45;26.00;61.20
81307;DHT22;70775;50.846;3.224;2023-07-28T15:26:11;25.70;64.00
81307;DHT22;70775;50.846;3.224;2023-07-28T15:28:36;25.60;64.40
81307;DHT22;70775;50.846;3.224;2023-07-28T15:31:02;25.80;63.60
81307;DHT22;70775;50.846;3.224;2023-07-28T15:33:27;25.80;61.90
81307;DHT22;70775;50.846;3.224;2023-07-28T15:35:56;25.90;63.50
81307;DHT22;70775;50.846;3.224;2023-07-28T15:38:22;25.90;63.50
81307;DHT22;70775;50.846;3.224;2023-07-28T15:40:47;25.90;63.20
81307;DHT22;70775;50.846;3.224;2023-07-28T15:43:13;25.60;63.90
81307;DHT22;70775;50.846;3.224;2023-07-28T15:45:39;25.60;64.00